createdAt,value
2023-03-10T00:01:29.499Z,1.52
2023-03-10T00:03:57.424Z,1.47
2023-03-10T00:06:26.056Z,1.45
2023-03-10T00:08:54.213Z,1.42
2023-03-10T00:11:22.448Z,1.39
2023-03-10T00:13:51.239Z,1.36
2023-03-10T00:16:19.919Z,1.35
2023-03-10T00:18:49.875Z,1.33
2023-03-10T00:21:18.599Z,1.29
2023-03-10T00:23:46.797Z,1.25
2023-03-10T00:26:15.079Z,1.22
2023-03-10T00:28:43.152Z,1.19
2023-03-10T00:31:12.313Z,1.17
2023-03-10T00:33:40.265Z,1.15
2023-03-10T00:36:12.997Z,1.11
2023-03-10T00:38:41.775Z,1.06
2023-03-10T00:41:11.499Z,1.04
2023-03-10T00:43:41.911Z,1.01
2023-03-10T00:46:09.823Z,1.00
2023-03-10T00:48:39.562Z,1.00
2023-03-10T00:51:07.384Z,0.98
2023-03-10T00:53:35.635Z,0.96
2023-03-10T00:56:10.180Z,0.91
2023-03-10T00:58:37.774Z,0.88
2023-03-10T01:01:05.579Z,0.87
2023-03-10T01:03:32.900Z,0.88
2023-03-10T01:06:01.665Z,0.87
2023-03-10T01:08:31.128Z,0.87
2023-03-10T01:10:59.484Z,0.85
2023-03-10T01:13:28.086Z,0.83
2023-03-10T01:15:55.836Z,0.79
2023-03-10T01:18:23.490Z,0.76
2023-03-10T01:20:51.176Z,0.74
2023-03-10T01:23:19.746Z,0.71
2023-03-10T01:25:47.670Z,0.69
2023-03-10T01:28:15.544Z,0.69
2023-03-10T01:30:42.976Z,0.68
2023-03-10T01:33:12.266Z,0.67
2023-03-10T01:35:40.021Z,0.65
2023-03-10T01:38:09.448Z,0.62
2023-03-10T01:40:37.677Z,0.58
2023-03-10T01:43:20.240Z,0.54
2023-03-10T01:45:48.419Z,0.50
2023-03-10T01:48:18.294Z,0.46
2023-03-10T01:50:46.523Z,0.44
2023-03-10T01:53:14.406Z,0.42
2023-03-10T01:55:42.894Z,0.40
2023-03-10T01:58:10.377Z,0.38
2023-03-10T02:00:37.906Z,0.33
2023-03-10T02:03:15.708Z,0.28
2023-03-10T02:05:45.386Z,0.25
2023-03-10T02:08:15.951Z,0.23
2023-03-10T02:10:44.957Z,0.21
2023-03-10T02:13:12.805Z,0.20
2023-03-10T02:15:43.334Z,0.19
2023-03-10T02:18:11.330Z,0.16
2023-03-10T02:20:58.013Z,0.13
2023-03-10T02:23:36.767Z,0.11
2023-03-10T02:26:30.787Z,0.10
2023-03-10T02:28:58.664Z,0.07
2023-03-10T02:31:26.454Z,0.06
2023-03-10T02:33:53.955Z,0.05
2023-03-10T02:36:22.011Z,0.06
2023-03-10T02:38:49.499Z,0.06
2023-03-10T02:41:30.847Z,0.06
2023-03-10T02:44:01.047Z,0.05
2023-03-10T02:46:30.740Z,0.05
2023-03-10T02:49:00.285Z,0.05
2023-03-10T02:51:34.648Z,0.03
2023-03-10T02:54:05.027Z,-0.02
2023-03-10T02:56:34.117Z,-0.06
2023-03-10T02:59:01.658Z,-0.07
2023-03-10T03:01:33.521Z,-0.08
2023-03-10T03:04:01.089Z,-0.10
2023-03-10T03:06:28.744Z,-0.11
2023-03-10T03:08:56.326Z,-0.13
2023-03-10T03:11:24.899Z,-0.16
2023-03-10T03:13:53.393Z,-0.20
2023-03-10T03:16:20.969Z,-0.21
2023-03-10T03:18:51.619Z,-0.22
2023-03-10T03:21:23.065Z,-0.22
2023-03-10T03:23:50.970Z,-0.22
2023-03-10T03:26:22.968Z,-0.24
2023-03-10T03:28:53.237Z,-0.26
2023-03-10T03:31:24.627Z,-0.28
2023-03-10T03:34:00.779Z,-0.28
2023-03-10T03:36:28.727Z,-0.29
2023-03-10T03:38:57.026Z,-0.31
2023-03-10T03:41:25.505Z,-0.32
2023-03-10T03:43:53.001Z,-0.33
2023-03-10T03:46:20.302Z,-0.33
2023-03-10T03:48:47.911Z,-0.34
2023-03-10T03:51:15.318Z,-0.34
2023-03-10T03:53:44.169Z,-0.33
2023-03-10T03:56:11.952Z,-0.32
2023-03-10T03:58:41.059Z,-0.33
2023-03-10T04:01:09.722Z,-0.35
2023-03-10T04:03:41.105Z,-0.36
2023-03-10T04:06:09.857Z,-0.38
2023-03-10T04:08:38.296Z,-0.39
2023-03-10T04:11:05.754Z,-0.41
2023-03-10T04:13:41.809Z,-0.42
2023-03-10T04:16:10.267Z,-0.44
2023-03-10T04:18:39.025Z,-0.45
2023-03-10T04:21:06.624Z,-0.45
2023-03-10T04:23:34.797Z,-0.43
2023-03-10T04:26:06.498Z,-0.42
2023-03-10T04:28:34.596Z,-0.42
2023-03-10T04:31:02.104Z,-0.42
2023-03-10T04:33:34.491Z,-0.42
2023-03-10T04:36:02.741Z,-0.42
2023-03-10T04:38:32.783Z,-0.42
2023-03-10T04:41:02.811Z,-0.42
2023-03-10T04:43:32.449Z,-0.39
2023-03-10T04:46:00.210Z,-0.36
2023-03-10T04:48:28.954Z,-0.35
2023-03-10T04:51:01.758Z,-0.34
2023-03-10T04:53:32.363Z,-0.33
2023-03-10T04:56:01.948Z,-0.32
2023-03-10T04:58:30.972Z,-0.32
2023-03-10T05:01:03.245Z,-0.30
2023-03-10T05:03:36.004Z,-0.29
2023-03-10T05:06:04.555Z,-0.29
2023-03-10T05:08:36.855Z,-0.28
2023-03-10T05:11:08.045Z,-0.28
2023-03-10T05:13:35.928Z,-0.28
2023-03-10T05:16:04.000Z,-0.28
2023-03-10T05:18:35.529Z,-0.28
2023-03-10T05:21:04.515Z,-0.25
2023-03-10T05:23:32.590Z,-0.23
2023-03-10T05:26:04.792Z,-0.22
2023-03-10T05:28:33.954Z,-0.21
2023-03-10T05:31:07.495Z,-0.21
2023-03-10T05:33:35.025Z,-0.20
2023-03-10T05:36:09.735Z,-0.20
2023-03-10T05:38:37.801Z,-0.19
2023-03-10T05:41:07.845Z,-0.20
2023-03-10T05:43:35.989Z,-0.20
2023-03-10T05:46:03.537Z,-0.20
2023-03-10T05:48:32.768Z,-0.16
2023-03-10T05:51:18.619Z,-0.12
2023-03-10T05:53:48.046Z,-0.07
2023-03-10T05:56:20.282Z,-0.04
2023-03-10T05:58:51.511Z,-0.01
2023-03-10T06:01:20.501Z,0.05
2023-03-10T06:03:48.680Z,0.12
2023-03-10T06:06:19.013Z,0.20
2023-03-10T06:08:47.044Z,0.27
2023-03-10T06:11:18.192Z,0.32
2023-03-10T06:13:46.728Z,0.33
2023-03-10T06:16:14.053Z,0.35
2023-03-10T06:18:41.926Z,0.41
2023-03-10T06:21:10.609Z,0.48
2023-03-10T06:23:38.030Z,0.59
2023-03-10T06:26:08.963Z,0.67
2023-03-10T06:28:37.424Z,0.71
2023-03-10T06:31:06.406Z,0.74
2023-03-10T06:33:33.825Z,0.79
2023-03-10T06:36:01.498Z,0.81
2023-03-10T06:38:30.415Z,0.83
2023-03-10T06:40:57.860Z,0.84
2023-03-10T06:43:25.347Z,0.84
2023-03-10T06:45:55.016Z,0.82
2023-03-10T06:48:22.180Z,0.82
2023-03-10T06:50:50.777Z,0.79
2023-03-10T06:53:21.087Z,0.78
2023-03-10T06:55:57.066Z,0.76
2023-03-10T06:58:24.588Z,0.81
2023-03-10T07:00:52.023Z,0.86
2023-03-10T07:03:19.800Z,0.88
2023-03-10T07:05:47.551Z,0.90
2023-03-10T07:08:14.864Z,0.93
2023-03-10T07:10:42.090Z,0.95
2023-03-10T07:13:10.636Z,0.95
2023-03-10T07:15:39.888Z,0.99
2023-03-10T07:18:08.254Z,1.02
2023-03-10T07:20:35.893Z,1.00
2023-03-10T07:23:04.703Z,0.98
2023-03-10T07:25:34.250Z,0.98
2023-03-10T07:28:02.183Z,1.03
2023-03-10T07:30:29.753Z,1.11
2023-03-10T07:32:57.285Z,1.18
2023-03-10T07:35:24.836Z,1.18
2023-03-10T07:37:54.441Z,1.16
2023-03-10T07:40:24.914Z,1.15
2023-03-10T07:42:54.419Z,1.16
2023-03-10T07:45:22.320Z,1.19
2023-03-10T07:47:50.108Z,1.25
2023-03-10T07:50:18.799Z,1.33
2023-03-10T07:52:46.606Z,1.37
2023-03-10T07:55:15.565Z,1.39
2023-03-10T07:57:43.242Z,1.42
2023-03-10T08:00:10.894Z,1.44
2023-03-10T08:02:41.241Z,1.51
2023-03-10T08:05:09.060Z,1.59
2023-03-10T08:07:40.434Z,1.64
2023-03-10T08:10:07.809Z,1.69
2023-03-10T08:12:35.996Z,1.74
2023-03-10T08:15:04.602Z,1.80
2023-03-10T08:17:33.204Z,1.86
2023-03-10T08:20:01.824Z,1.92
2023-03-10T08:22:29.360Z,1.97
2023-03-10T08:24:59.099Z,2.02
2023-03-10T08:27:28.867Z,2.06
2023-03-10T08:29:56.979Z,2.10
2023-03-10T08:32:24.149Z,2.14
2023-03-10T08:34:51.809Z,2.17
2023-03-10T08:37:19.060Z,2.18
2023-03-10T08:39:47.012Z,2.20
2023-03-10T08:42:14.874Z,2.21
2023-03-10T08:44:42.452Z,2.22
2023-03-10T08:47:09.815Z,2.26
2023-03-10T08:49:43.868Z,2.31
2023-03-10T08:52:12.675Z,2.34
2023-03-10T08:54:39.998Z,2.33
2023-03-10T08:57:07.577Z,2.31
2023-03-10T08:59:35.158Z,2.34
2023-03-10T09:02:03.622Z,2.39
2023-03-10T09:04:31.281Z,2.37
2023-03-10T09:06:58.572Z,2.36
2023-03-10T09:09:25.725Z,2.37
2023-03-10T09:11:54.380Z,2.40
2023-03-10T09:14:22.032Z,2.41
2023-03-10T09:16:49.332Z,2.42
2023-03-10T09:19:16.802Z,2.45
2023-03-10T09:21:47.535Z,2.50
2023-03-10T09:24:15.031Z,2.57
2023-03-10T09:26:44.684Z,2.63
2023-03-10T09:29:17.046Z,2.67
2023-03-10T09:31:46.390Z,2.66
2023-03-10T09:34:14.169Z,2.63
2023-03-10T09:36:46.712Z,2.68
2023-03-10T09:39:14.015Z,2.78
2023-03-10T09:42:00.659Z,2.86
2023-03-10T09:44:47.271Z,2.87
2023-03-10T09:47:33.366Z,2.92
2023-03-10T09:50:11.456Z,3.03
2023-03-10T09:52:45.089Z,3.20
2023-03-10T09:55:18.884Z,3.36
2023-03-10T09:57:50.257Z,3.47
2023-03-10T10:00:20.091Z,3.58
2023-03-10T10:02:47.633Z,3.69
2023-03-10T10:05:33.811Z,3.71
2023-03-10T10:08:03.367Z,3.71
2023-03-10T10:10:31.480Z,3.70
2023-03-10T10:13:05.140Z,3.67
2023-03-10T10:15:35.516Z,3.58
2023-03-10T10:18:16.176Z,3.45
2023-03-10T10:21:12.299Z,3.38
2023-03-10T10:23:41.373Z,3.29
2023-03-10T10:26:12.491Z,3.27
2023-03-10T10:28:41.917Z,3.29
2023-03-10T10:31:12.984Z,3.32
2023-03-10T10:34:01.253Z,3.36
2023-03-10T10:36:32.854Z,3.38
2023-03-10T10:39:04.406Z,3.50
2023-03-10T10:41:32.468Z,3.61
2023-03-10T10:44:12.627Z,3.65
2023-03-10T10:46:41.806Z,3.69
2023-03-10T10:49:19.794Z,3.73
2023-03-10T10:52:00.421Z,3.76
2023-03-10T10:54:31.097Z,3.79
2023-03-10T10:56:59.048Z,3.83
2023-03-10T10:59:33.602Z,3.86
2023-03-10T11:02:02.482Z,3.89
2023-03-10T11:04:43.882Z,3.88
2023-03-10T11:07:16.862Z,3.89
2023-03-10T11:09:48.477Z,3.90
2023-03-10T11:12:19.862Z,3.91
2023-03-10T11:14:52.143Z,3.93
2023-03-10T11:17:24.916Z,3.92
2023-03-10T11:19:52.180Z,3.92
2023-03-10T11:22:19.482Z,3.93
2023-03-10T11:24:52.025Z,3.95
2023-03-10T11:27:25.131Z,4.00
2023-03-10T11:29:52.683Z,4.10
2023-03-10T11:32:35.590Z,4.14
2023-03-10T11:35:10.966Z,4.12
2023-03-10T11:37:46.917Z,4.12
2023-03-10T11:40:24.303Z,4.06
2023-03-10T11:42:51.483Z,4.04
2023-03-10T11:45:21.662Z,4.02
2023-03-10T11:48:01.636Z,4.01
2023-03-10T11:50:38.224Z,4.00
2023-03-10T11:53:09.902Z,3.99
2023-03-10T11:55:39.255Z,4.03
2023-03-10T11:58:06.681Z,4.01
2023-03-10T12:00:36.308Z,3.96
2023-03-10T12:03:27.943Z,3.94
2023-03-10T12:05:55.761Z,3.96
2023-03-10T12:08:24.303Z,3.99
2023-03-10T12:10:52.048Z,4.01
2023-03-10T12:13:23.715Z,4.02
2023-03-10T12:15:54.462Z,4.07
2023-03-10T12:18:26.697Z,4.11
2023-03-10T12:21:14.172Z,4.12
2023-03-10T12:23:42.670Z,4.12
2023-03-10T12:26:10.357Z,4.12
2023-03-10T12:28:37.722Z,4.12
2023-03-10T12:31:06.411Z,4.12
2023-03-10T12:33:37.160Z,4.15
2023-03-10T12:36:09.022Z,4.19
2023-03-10T12:38:46.325Z,4.24
2023-03-10T12:41:34.628Z,4.27
2023-03-10T12:44:04.766Z,4.27
2023-03-10T12:47:01.952Z,4.27
2023-03-10T12:49:44.255Z,4.30
2023-03-10T12:52:27.071Z,4.35
2023-03-10T12:55:01.862Z,4.40
2023-03-10T12:57:32.885Z,4.44
2023-03-10T13:00:13.108Z,4.48
2023-03-10T13:02:47.485Z,4.55
2023-03-10T13:05:24.760Z,4.59
2023-03-10T13:07:53.212Z,4.66
2023-03-10T13:10:21.959Z,4.71
2023-03-10T13:13:02.756Z,4.74
2023-03-10T13:15:31.492Z,4.74
2023-03-10T13:18:10.076Z,4.76
2023-03-10T13:20:40.152Z,4.77
2023-03-10T13:23:27.914Z,4.76
2023-03-10T13:25:56.283Z,4.77
2023-03-10T13:28:24.652Z,4.79
2023-03-10T13:30:51.909Z,4.83
2023-03-10T13:33:20.535Z,4.87
2023-03-10T13:35:47.922Z,4.94
2023-03-10T13:38:17.575Z,5.06
2023-03-10T13:40:46.064Z,5.22
2023-03-10T13:43:37.440Z,5.34
2023-03-10T13:46:25.701Z,5.37
2023-03-10T13:48:53.127Z,5.32
2023-03-10T13:51:24.496Z,5.27
2023-03-10T13:53:54.750Z,5.20
2023-03-10T13:56:25.141Z,5.14
2023-03-10T13:58:56.285Z,5.11
2023-03-10T14:01:24.624Z,5.11
2023-03-10T14:04:04.380Z,5.11
2023-03-10T14:06:36.705Z,5.11
2023-03-10T14:09:20.879Z,5.09
2023-03-10T14:11:49.345Z,5.05
2023-03-10T14:14:29.713Z,5.02
2023-03-10T14:17:04.157Z,5.00
2023-03-10T14:19:40.972Z,4.96
2023-03-10T14:22:38.821Z,4.90
2023-03-10T14:25:07.445Z,4.86
2023-03-10T14:27:35.316Z,4.84
2023-03-10T14:30:04.217Z,4.80
2023-03-10T14:32:38.472Z,4.76
2023-03-10T14:35:09.781Z,4.73
2023-03-10T14:37:37.022Z,4.69
2023-03-10T14:40:05.767Z,4.66
2023-03-10T14:42:33.791Z,4.63
2023-03-10T14:45:08.267Z,4.59
2023-03-10T14:47:36.598Z,4.56
2023-03-10T14:50:04.138Z,4.54
2023-03-10T14:52:31.700Z,4.51
2023-03-10T14:54:58.952Z,4.47
2023-03-10T14:57:28.620Z,4.42
2023-03-10T14:59:56.370Z,4.37
2023-03-10T15:02:24.833Z,4.33
2023-03-10T15:04:52.147Z,4.31
2023-03-10T15:07:19.687Z,4.30
2023-03-10T15:09:48.433Z,4.30
2023-03-10T15:12:17.622Z,4.32
2023-03-10T15:14:49.817Z,4.34
2023-03-10T15:17:18.165Z,4.36
2023-03-10T15:19:46.342Z,4.37
2023-03-10T15:22:13.654Z,4.36
2023-03-10T15:24:41.747Z,4.33
2023-03-10T15:27:10.565Z,4.30
2023-03-10T15:29:38.030Z,4.24
2023-03-10T15:32:06.199Z,4.18
2023-03-10T15:34:33.647Z,4.11
2023-03-10T15:37:01.265Z,4.03
2023-03-10T15:39:32.280Z,3.96
2023-03-10T15:42:03.603Z,3.89
2023-03-10T15:44:31.148Z,3.82
2023-03-10T15:46:59.723Z,3.75
2023-03-10T15:49:27.821Z,3.69
2023-03-10T15:51:55.075Z,3.62
2023-03-10T15:54:22.357Z,3.55
2023-03-10T15:56:50.016Z,3.48
2023-03-10T15:59:19.123Z,3.40
2023-03-10T16:01:48.080Z,3.34
2023-03-10T16:04:16.200Z,3.29
2023-03-10T16:06:43.597Z,3.24
2023-03-10T16:09:11.032Z,3.19
2023-03-10T16:11:40.398Z,3.14
2023-03-10T16:14:14.098Z,3.09
2023-03-10T16:16:43.359Z,3.04
2023-03-10T16:19:11.137Z,3.00
2023-03-10T16:21:41.734Z,2.97
2023-03-10T16:24:09.324Z,2.93
2023-03-10T16:26:36.936Z,2.90
2023-03-10T16:29:04.584Z,2.88
2023-03-10T16:31:32.513Z,2.85
2023-03-10T16:34:01.850Z,2.82
2023-03-10T16:36:31.136Z,2.80
2023-03-10T16:38:58.658Z,2.79
2023-03-10T16:41:29.733Z,2.77
2023-03-10T16:43:57.394Z,2.74
2023-03-10T16:46:25.602Z,2.72
2023-03-10T16:48:55.140Z,2.70
2023-03-10T16:51:23.978Z,2.69
2023-03-10T16:53:51.919Z,2.66
2023-03-10T16:56:19.824Z,2.66
2023-03-10T16:58:47.071Z,2.64
2023-03-10T17:01:15.017Z,2.63
2023-03-10T17:03:42.546Z,2.62
2023-03-10T17:06:12.839Z,2.62
2023-03-10T17:08:40.310Z,2.61
2023-03-10T17:11:08.109Z,2.62
2023-03-10T17:13:37.665Z,2.62
2023-03-10T17:16:12.132Z,2.62
2023-03-10T17:18:39.433Z,2.61
2023-03-10T17:21:15.530Z,2.60
2023-03-10T17:23:56.302Z,2.59
2023-03-10T17:26:28.676Z,2.59
2023-03-10T17:28:56.171Z,2.59
2023-03-10T17:31:27.467Z,2.59
2023-03-10T17:33:57.114Z,2.58
2023-03-10T17:36:24.554Z,2.58
2023-03-10T17:38:53.851Z,2.57
2023-03-10T17:41:21.157Z,2.56
2023-03-10T17:43:52.716Z,2.54
2023-03-10T17:46:20.791Z,2.52
2023-03-10T17:48:52.367Z,2.50
2023-03-10T17:51:21.327Z,2.47
2023-03-10T17:53:48.709Z,2.45
2023-03-10T17:56:16.827Z,2.45
2023-03-10T17:58:44.345Z,2.45
2023-03-10T18:01:13.656Z,2.46
2023-03-10T18:03:41.500Z,2.46
2023-03-10T18:06:12.919Z,2.47
2023-03-10T18:08:40.424Z,2.47
2023-03-10T18:11:07.701Z,2.46
2023-03-10T18:13:35.086Z,2.45
2023-03-10T18:16:02.747Z,2.44
2023-03-10T18:18:30.338Z,2.44
2023-03-10T18:20:57.677Z,2.41
2023-03-10T18:23:27.659Z,2.40
2023-03-10T18:25:59.157Z,2.38
2023-03-10T18:28:27.146Z,2.36
2023-03-10T18:30:54.484Z,2.35
2023-03-10T18:33:26.654Z,2.34
2023-03-10T18:35:54.541Z,2.32
2023-03-10T18:38:25.295Z,2.29
2023-03-10T18:40:59.383Z,2.27
2023-03-10T18:43:28.824Z,2.24
2023-03-10T18:45:56.075Z,2.20
2023-03-10T18:48:25.442Z,2.17
2023-03-10T18:50:53.850Z,2.14
2023-03-10T18:53:21.902Z,2.12
2023-03-10T18:55:49.083Z,2.10
2023-03-10T18:58:16.329Z,2.08
2023-03-10T19:00:43.707Z,2.06
2023-03-10T19:03:13.395Z,2.04
2023-03-10T19:05:41.358Z,2.01
2023-03-10T19:08:10.071Z,1.97
2023-03-10T19:10:39.296Z,1.94
2023-03-10T19:13:07.780Z,1.90
2023-03-10T19:15:36.495Z,1.87
2023-03-10T19:18:04.340Z,1.83
2023-03-10T19:20:32.642Z,1.81
2023-03-10T19:23:00.043Z,1.79
2023-03-10T19:25:30.531Z,1.77
2023-03-10T19:27:58.044Z,1.74
2023-03-10T19:30:26.109Z,1.72
2023-03-10T19:32:54.712Z,1.70
2023-03-10T19:35:22.097Z,1.67
2023-03-10T19:37:51.139Z,1.63
2023-03-10T19:40:20.068Z,1.59
2023-03-10T19:42:47.885Z,1.56
2023-03-10T19:45:16.265Z,1.53
2023-03-10T19:47:43.920Z,1.50
2023-03-10T19:50:12.208Z,1.48
2023-03-10T19:52:46.561Z,1.45
2023-03-10T19:55:23.037Z,1.43
2023-03-10T19:57:51.210Z,1.41
2023-03-10T20:00:21.275Z,1.39
2023-03-10T20:02:48.938Z,1.36
2023-03-10T20:05:16.347Z,1.33
2023-03-10T20:07:46.208Z,1.28
2023-03-10T20:10:14.175Z,1.26
2023-03-10T20:12:41.865Z,1.24
2023-03-10T20:15:14.777Z,1.21
2023-03-10T20:17:43.461Z,1.18
2023-03-10T20:20:12.082Z,1.16
2023-03-10T20:22:40.547Z,1.14
2023-03-10T20:25:08.357Z,1.11
2023-03-10T20:27:35.878Z,1.08
2023-03-10T20:30:12.536Z,1.06
2023-03-10T20:32:40.634Z,1.02
2023-03-10T20:35:08.280Z,0.98
2023-03-10T20:37:38.285Z,0.95
2023-03-10T20:40:10.904Z,0.92
2023-03-10T20:42:38.521Z,0.90
2023-03-10T20:45:06.942Z,0.88
2023-03-10T20:47:41.265Z,0.86
2023-03-10T20:50:09.516Z,0.85
2023-03-10T20:52:37.394Z,0.84
2023-03-10T20:55:04.894Z,0.82
2023-03-10T20:57:32.724Z,0.80
2023-03-10T21:00:00.718Z,0.79
2023-03-10T21:02:28.824Z,0.77
2023-03-10T21:04:56.030Z,0.76
2023-03-10T21:07:23.286Z,0.74
2023-03-10T21:09:57.811Z,0.73
2023-03-10T21:12:26.405Z,0.71
2023-03-10T21:14:54.375Z,0.69
2023-03-10T21:17:22.795Z,0.67
2023-03-10T21:19:56.668Z,0.64
2023-03-10T21:22:24.311Z,0.62
2023-03-10T21:24:52.443Z,0.60
2023-03-10T21:27:20.740Z,0.58
2023-03-10T21:29:48.340Z,0.56
2023-03-10T21:32:15.624Z,0.53
2023-03-10T21:34:43.067Z,0.50
2023-03-10T21:37:11.768Z,0.50
2023-03-10T21:39:39.660Z,0.48
2023-03-10T21:42:07.091Z,0.46
2023-03-10T21:44:34.952Z,0.45
2023-03-10T21:47:02.339Z,0.45
2023-03-10T21:49:29.786Z,0.45
2023-03-10T21:51:57.623Z,0.44
2023-03-10T21:54:24.871Z,0.44
2023-03-10T21:56:54.460Z,0.43
2023-03-10T21:59:21.658Z,0.43
2023-03-10T22:01:50.091Z,0.42
2023-03-10T22:04:17.359Z,0.42
2023-03-10T22:06:44.697Z,0.42
2023-03-10T22:09:13.747Z,0.42
2023-03-10T22:11:41.211Z,0.42
2023-03-10T22:14:10.107Z,0.41
2023-03-10T22:16:37.615Z,0.41
2023-03-10T22:19:09.270Z,0.40
2023-03-10T22:21:36.508Z,0.38
2023-03-10T22:24:03.836Z,0.38
2023-03-10T22:26:31.869Z,0.36
2023-03-10T22:29:00.073Z,0.37
2023-03-10T22:31:27.423Z,0.37
2023-03-10T22:33:55.162Z,0.38
2023-03-10T22:36:23.613Z,0.38
2023-03-10T22:38:50.996Z,0.38
2023-03-10T22:41:18.340Z,0.37
2023-03-10T22:43:47.645Z,0.37
2023-03-10T22:46:15.476Z,0.36
2023-03-10T22:48:43.923Z,0.36
2023-03-10T22:51:15.682Z,0.37
2023-03-10T22:53:43.176Z,0.38
2023-03-10T22:56:10.517Z,0.37
2023-03-10T22:58:38.296Z,0.35
2023-03-10T23:01:06.137Z,0.34
2023-03-10T23:03:34.869Z,0.32
2023-03-10T23:06:05.627Z,0.31
2023-03-10T23:08:39.214Z,0.31
2023-03-10T23:11:10.235Z,0.30
2023-03-10T23:13:38.944Z,0.29
2023-03-10T23:16:12.511Z,0.27
2023-03-10T23:18:41.668Z,0.26
2023-03-10T23:21:09.257Z,0.24
2023-03-10T23:23:39.034Z,0.22
2023-03-10T23:26:06.507Z,0.21
2023-03-10T23:28:33.793Z,0.20
2023-03-10T23:31:01.179Z,0.20
2023-03-10T23:33:30.169Z,0.18
2023-03-10T23:35:57.580Z,0.17
2023-03-10T23:38:25.115Z,0.16
2023-03-10T23:40:52.785Z,0.15
2023-03-10T23:43:20.748Z,0.14
2023-03-10T23:45:50.780Z,0.14
2023-03-10T23:48:18.750Z,0.13
2023-03-10T23:50:46.983Z,0.12
2023-03-10T23:53:14.950Z,0.12
2023-03-10T23:55:43.443Z,0.11
2023-03-10T23:58:11.855Z,0.10
